Tropical Cyclones
[Index]
Season 2021-2022 Tropical Cyclone TERATAI Track Map
Season 2021-2022 Summaries: [BoM-AU]
<<- Previous TC | BoM 2021-2022 Season | Next TC ->>

click for intensity scale information  Lat/long Grid: Show Hide

 Date Labels: Show Hide

Bureau of Meteorology Tropical Cyclone Data

Name: TERATAI

29 Nov 2021 18:00 UTC to 11 Dec 2021 18:00 UTC

    date/time    lat    long    hPa   cat  kts
2021-11-29 18    6.6   101.7   1006         25          
2021-11-30 00    6.7   102.0   1006         25          
2021-11-30 06    6.9   102.4   1002         30          
2021-11-30 12    7.5   102.5   1000         30          
2021-11-30 18    8.3   102.6    999         40          
2021-12-01 00    9.0   102.6    998         40          
2021-12-01 06    9.4   102.6    996         40          
2021-12-01 12    9.7   102.2    998         40          
2021-12-01 18    9.9   101.8   1000         35          
2021-12-02 00   10.0   101.2   1000         35          
2021-12-02 06    9.8   100.9   1000         30          
2021-12-02 12    9.4   100.5   1002         25          
2021-12-02 18    9.2    99.6   1002         20          
2021-12-03 00    9.1    98.9   1004         20          
2021-12-03 06    9.0    98.4   1004         20          
2021-12-03 12    8.7    97.9   1004         20          
2021-12-03 18    8.5    97.2   1004         20          
2021-12-04 00    8.4    96.7   1004         20          
2021-12-04 06    8.3    96.7   1004         20          
2021-12-04 12    8.2    97.0   1004         20          
2021-12-04 18    7.8    97.3   1004         20          
2021-12-05 00    7.5    97.8   1006         15          
2021-12-05 06    7.4    98.5   1006         15          
2021-12-05 12    7.6    99.5   1006         15          
2021-12-05 18    7.8   100.9   1006         15          
2021-12-06 00    8.1   102.3   1006         15          
2021-12-06 06    8.6   103.5   1002         20          
2021-12-06 12    9.0   104.6   1002         25          
2021-12-06 18    9.5   105.7   1002         30          
2021-12-07 00   10.0   106.5   1002         35          
2021-12-07 06   10.6   106.6   1000         30          
2021-12-07 12   11.3   106.7   1000         30          
2021-12-07 18   12.0   106.5   1000         35          
2021-12-08 00   12.5   106.2   1002         35          
2021-12-08 06   13.1   105.6   1002         35          
2021-12-08 12   13.4   105.1   1002         35          
2021-12-08 18   13.8   104.6   1004         30          
2021-12-09 00   14.1   103.8   1006         30          
2021-12-09 06   14.3   103.1   1006         30          
2021-12-09 12   14.6   102.4   1006         25          
2021-12-09 18   14.7   101.5   1006         25          
2021-12-10 00   15.2   100.7   1006         25          
2021-12-10 06   15.7    99.6   1006         25          
2021-12-10 12   16.1    98.5   1006         20          
2021-12-10 18   16.5    97.4   1006         20          
2021-12-11 00   16.9    96.3   1006         20          
2021-12-11 06   17.5    95.2   1006         20          
2021-12-11 12   17.6    94.1   1008         15          
2021-12-11 18   17.8    92.9   1008         15          
Winds are 10-min average.

Tropical cyclone tracks developed by Michael Bath using data from the Bureau of Meteorology and Google Maps.


Document: tropical_cyclone_teratai.htm
Updated: 23 June 2022
[Australian Severe Weather index] [Copyright Notice] [Email Contacts] [Search This Site] [Privacy Policy]


Main Index Home Page Stock Weather Photos Extreme Storms Discussion Storm News and Storm Chasing Reports Tropical Cyclones / Hurricanes / Typhoons Weather Data and Links Wild Fires / Bushfires Weather Observation Techniques Weather Picture Catalogue Tornado Pictures and Reports Stock Video Footage and DVDs for sale